Time;durP1;ratioP1;P1;durP2;ratioP2;P2;SDS_P1;SDS_P2;PMS_P1;PMS_P2;Temp;Humidity;BMP_temperature;BMP_pressure;BME280_temperature;BME280_humidity;BME280_pressure;Samples;Min_cycle;Max_cycle;Signal;HPM_P1;HPM_P2
2021/06/04 00:02:08;;;;;;;25.53;22.60;;;15.40;94.40;;;;;;5052255;28;20187;-87
2021/06/04 00:04:34;;;;;;;25.38;20.75;;;15.40;94.40;;;;;;5051862;28;20581;-87
2021/06/04 00:07:00;;;;;;;22.88;20.63;;;15.40;94.40;;;;;;5053173;28;20192;-87
2021/06/04 00:09:27;;;;;;;26.03;21.23;;;15.50;94.30;;;;;;5053609;28;20703;-87
2021/06/04 00:11:57;;;;;;;25.67;23.13;;;15.50;94.40;;;;;;5051770;28;20202;-87
2021/06/04 00:14:26;;;;;;;25.70;23.15;;;15.40;94.40;;;;;;5051810;28;20598;-87
2021/06/04 00:17:02;;;;;;;24.58;22.15;;;15.50;94.40;;;;;;5051723;28;20233;-88
2021/06/04 00:19:30;;;;;;;24.53;22.37;;;15.50;94.40;;;;;;5053299;28;20266;-87
2021/06/04 00:22:03;;;;;;;26.87;24.17;;;15.50;94.40;;;;;;5051669;28;20233;-87
2021/06/04 00:24:29;;;;;;;26.73;24.13;;;15.50;94.40;;;;;;5052883;28;20731;-87
2021/06/04 00:26:54;;;;;;;28.50;24.73;;;15.60;94.40;;;;;;5052711;28;20299;-87
2021/06/04 00:29:21;;;;;;;26.27;23.77;;;15.50;94.40;;;;;;5052886;28;20176;-87
2021/06/04 00:31:49;;;;;;;26.80;24.17;;;15.50;94.40;;;;;;5052787;28;20226;-87
2021/06/04 00:34:15;;;;;;;26.87;24.20;;;15.50;94.40;;;;;;5051505;28;20212;-87
2021/06/04 00:36:43;;;;;;;28.30;23.60;;;15.50;94.40;;;;;;5052807;28;20250;-88
2021/06/04 00:39:10;;;;;;;30.67;24.47;;;15.40;94.40;;;;;;5052741;28;20633;-87
2021/06/04 00:41:49;;;;;;;30.50;26.77;;;15.40;94.30;;;;;;5051536;28;20267;-87
2021/06/04 00:44:16;;;;;;;31.87;26.90;;;15.30;94.40;;;;;;5053050;28;20204;-87
2021/06/04 00:46:42;;;;;;;32.90;29.00;;;15.40;94.50;;;;;;5056484;28;20206;-87
2021/06/04 00:49:08;;;;;;;31.97;28.53;;;15.40;94.50;;;;;;5055378;28;20176;-87
2021/06/04 00:51:57;;;;;;;31.53;28.30;;;15.30;94.50;;;;;;5056412;28;20222;-87
2021/06/04 00:54:24;;;;;;;31.37;28.13;;;15.40;94.50;;;;;;5055170;28;20168;-87
2021/06/04 00:56:51;;;;;;;30.00;26.77;;;15.30;94.50;;;;;;5055070;28;20179;-87
2021/06/04 00:59:25;;;;;;;31.83;26.63;;;15.40;94.50;;;;;;5055028;28;20179;-87
2021/06/04 01:01:52;;;;;;;31.77;28.43;;;15.40;94.40;;;;;;5055039;28;20175;-87
2021/06/04 01:04:20;;;;;;;30.43;27.33;;;15.40;94.40;;;;;;5054791;28;20185;-87
2021/06/04 01:07:00;;;;;;;34.93;29.67;;;15.30;94.50;;;;;;5056147;28;20200;-87
2021/06/04 01:09:40;;;;;;;34.80;31.03;;;15.40;94.50;;;;;;5054952;28;20665;-87
2021/06/04 01:12:25;;;;;;;33.53;30.17;;;15.30;94.60;;;;;;5054899;28;20183;-86
2021/06/04 01:15:35;;;;;;;35.23;31.47;;;15.40;94.60;;;;;;5056517;28;20716;-86
2021/06/04 01:18:07;;;;;;;33.70;30.10;;;15.40;94.70;;;;;;4978215;28;20272;-87
2021/06/04 01:20:41;;;;;;;36.13;30.03;;;15.40;94.60;;;;;;5045862;28;20194;-87
2021/06/04 01:23:45;;;;;;;35.60;30.00;;;15.40;94.70;;;;;;5055951;28;20170;-87
2021/06/04 01:26:26;;;;;;;35.20;31.37;;;15.40;94.70;;;;;;5055926;28;20611;-86
2021/06/04 01:28:56;;;;;;;41.07;33.97;;;15.40;94.80;;;;;;5054569;28;20183;-86
2021/06/04 01:31:37;;;;;;;37.57;33.57;;;15.30;94.80;;;;;;5056003;28;20156;-87
2021/06/04 01:34:27;;;;;;;40.03;33.67;;;15.40;94.80;;;;;;5054372;28;20167;-87
2021/06/04 01:36:59;;;;;;;41.00;35.60;;;15.40;94.90;;;;;;5054629;28;20168;-87
2021/06/04 01:39:39;;;;;;;39.20;35.10;;;15.40;94.90;;;;;;5055551;28;20617;-87
2021/06/04 01:42:08;;;;;;;47.33;37.47;;;15.40;94.90;;;;;;5055547;28;20247;-87
2021/06/04 01:44:46;;;;;;;40.53;34.60;;;15.50;94.90;;;;;;5054117;28;20215;-86
2021/06/04 01:47:16;;;;;;;48.53;36.23;;;15.50;94.90;;;;;;5054166;28;20179;-87
2021/06/04 01:49:45;;;;;;;44.47;35.60;;;15.40;94.90;;;;;;5055343;28;20176;-87
2021/06/04 01:52:18;;;;;;;39.20;35.07;;;15.40;94.90;;;;;;5055287;28;20186;-87
2021/06/04 01:54:49;;;;;;;39.77;35.73;;;15.40;94.90;;;;;;5053460;28;20204;-87
2021/06/04 01:57:21;;;;;;;40.30;36.33;;;15.30;95.00;;;;;;5053934;28;20176;-87
2021/06/04 01:59:51;;;;;;;37.67;33.27;;;15.40;95.00;;;;;;5054032;28;20172;-87
2021/06/04 02:02:17;;;;;;;36.80;32.97;;;15.30;94.90;;;;;;5055088;28;20179;-87
2021/06/04 02:04:50;;;;;;;44.87;35.47;;;15.30;94.90;;;;;;5053627;28;20208;-86
2021/06/04 02:07:25;;;;;;;41.60;34.20;;;15.30;94.90;;;;;;5055046;28;20160;-87
2021/06/04 02:09:52;;;;;;;38.93;34.57;;;15.30;94.90;;;;;;5053793;28;20168;-87
2021/06/04 02:12:17;;;;;;;41.07;34.03;;;15.30;94.80;;;;;;5053994;28;20176;-86
2021/06/04 02:14:51;;;;;;;36.97;33.37;;;15.30;94.80;;;;;;5053610;28;20265;-86
2021/06/04 02:17:32;;;;;;;45.47;32.30;;;15.30;94.80;;;;;;5053585;28;20168;-87
2021/06/04 02:20:18;;;;;;;33.65;29.63;;;15.20;94.80;;;;;;5053595;28;20165;-87
2021/06/04 02:22:53;;;;;;;29.37;26.23;;;15.30;94.80;;;;;;5054218;28;20192;-87
2021/06/04 02:25:39;;;;;;;29.13;24.17;;;15.30;94.80;;;;;;5053299;28;20207;-87
2021/06/04 02:28:35;;;;;;;29.97;25.90;;;15.20;94.80;;;;;;5053406;28;20164;-87
2021/06/04 02:31:09;;;;;;;27.97;22.57;;;15.20;94.80;;;;;;5046600;28;20184;-87
2021/06/04 02:33:52;;;;;;;23.33;21.13;;;15.20;94.70;;;;;;5053307;28;20516;-87
2021/06/04 02:36:24;;;;;;;24.08;20.90;;;15.20;94.70;;;;;;5054448;28;20571;-87
2021/06/04 02:38:54;;;;;;;22.03;19.53;;;15.20;94.70;;;;;;5053176;28;20168;-87
2021/06/04 02:41:22;;;;;;;25.13;22.23;;;15.10;94.60;;;;;;5053088;28;20168;-87
2021/06/04 02:43:52;;;;;;;29.30;24.43;;;15.00;94.60;;;;;;5053056;28;20175;-87
2021/06/04 02:46:26;;;;;;;26.05;23.45;;;15.00;94.60;;;;;;5052979;28;20295;-86
2021/06/04 02:48:53;;;;;;;25.70;23.20;;;14.90;94.50;;;;;;5053079;28;20198;-87
2021/06/04 02:51:34;;;;;;;29.53;24.17;;;14.90;94.50;;;;;;5053015;28;20183;-87
2021/06/04 02:54:19;;;;;;;28.70;25.87;;;14.90;94.50;;;;;;5053018;28;20162;-87
2021/06/04 02:56:51;;;;;;;25.77;23.03;;;14.90;94.40;;;;;;5054373;28;20167;-87
2021/06/04 02:59:26;;;;;;;30.17;22.10;;;14.70;94.10;;;;;;5053029;28;20183;-87
2021/06/04 03:01:57;;;;;;;27.03;24.10;;;14.70;94.10;;;;;;5052769;28;20168;-86
2021/06/04 03:04:24;;;;;;;26.17;23.47;;;14.60;94.10;;;;;;5052634;28;20305;-86
2021/06/04 03:06:53;;;;;;;28.67;25.77;;;14.60;94.10;;;;;;5051965;28;20791;-87
2021/06/04 03:09:23;;;;;;;29.27;25.63;;;14.50;94.10;;;;;;5053909;28;20216;-86
2021/06/04 03:11:53;;;;;;;31.03;26.17;;;14.50;94.10;;;;;;5053872;28;20157;-86
2021/06/04 03:14:20;;;;;;;29.83;27.03;;;14.40;94.00;;;;;;5053641;28;20174;-87
2021/06/04 03:16:47;;;;;;;35.30;28.43;;;14.30;94.00;;;;;;5052514;28;20664;-86
2021/06/04 03:19:15;;;;;;;34.30;28.47;;;14.30;94.10;;;;;;5052430;28;20194;-86
2021/06/04 03:21:46;;;;;;;38.30;27.53;;;14.30;94.30;;;;;;5052418;28;20183;-87
2021/06/04 03:24:16;;;;;;;32.67;29.47;;;14.10;94.20;;;;;;5052334;28;20172;-86
2021/06/04 03:26:43;;;;;;;30.73;27.40;;;14.00;94.30;;;;;;5052386;28;20195;-86
2021/06/04 03:29:12;;;;;;;28.67;25.63;;;14.10;94.30;;;;;;5053593;28;20172;-87
2021/06/04 03:31:41;;;;;;;29.70;26.60;;;14.20;94.40;;;;;;5052319;28;20172;-87
2021/06/04 03:34:08;;;;;;;153.30;34.67;;;14.10;94.30;;;;;;5053472;28;20164;-87
2021/06/04 03:36:39;;;;;;;155.23;29.07;;;14.10;94.30;;;;;;5053393;28;20717;-87
2021/06/04 03:39:09;;;;;;;297.33;33.13;;;14.00;94.30;;;;;;5052144;28;20238;-87
2021/06/04 03:41:37;;;;;;;31.77;28.57;;;14.00;94.30;;;;;;5052338;28;20183;-87
2021/06/04 03:44:09;;;;;;;51.33;27.63;;;13.90;94.30;;;;;;5052046;28;20176;-87
2021/06/04 03:46:35;;;;;;;27.00;24.40;;;14.00;94.40;;;;;;5052047;28;20196;-86
2021/06/04 03:49:01;;;;;;;29.20;26.40;;;14.00;94.40;;;;;;5052041;28;20178;-87
2021/06/04 03:51:31;;;;;;;241.80;29.50;;;14.00;94.40;;;;;;5053247;28;20247;-87
2021/06/04 03:53:57;;;;;;;220.83;27.63;;;14.00;94.30;;;;;;5053599;28;20179;-87
2021/06/04 03:56:24;;;;;;;358.57;31.10;;;14.00;94.30;;;;;;5051766;28;20250;-86
2021/06/04 03:58:51;;;;;;;255.67;30.03;;;14.00;94.40;;;;;;5051915;28;20203;-86
2021/06/04 04:01:30;;;;;;;26.00;23.60;;;14.00;94.40;;;;;;5051943;28;20176;-86
2021/06/04 04:03:57;;;;;;;23.50;21.40;;;14.00;94.50;;;;;;5053146;28;20620;-87
2021/06/04 04:06:23;;;;;;;138.43;26.17;;;14.10;94.50;;;;;;5051540;28;20269;-87
2021/06/04 04:08:50;;;;;;;335.10;29.13;;;14.20;94.50;;;;;;5051828;28;20176;-86
2021/06/04 04:11:16;;;;;;;107.40;27.20;;;14.20;94.50;;;;;;5051820;28;20203;-86
2021/06/04 04:13:42;;;;;;;75.27;31.10;;;14.30;94.60;;;;;;5051639;28;20712;-87
2021/06/04 04:16:08;;;;;;;33.53;29.97;;;14.20;94.60;;;;;;5051693;28;20249;-86
2021/06/04 04:18:34;;;;;;;36.40;32.90;;;14.30;94.70;;;;;;5055090;28;20266;-87
2021/06/04 04:21:04;;;;;;;36.27;32.73;;;14.40;94.80;;;;;;5057017;28;20175;-87
2021/06/04 04:23:45;;;;;;;42.03;37.03;;;14.50;94.80;;;;;;5055738;28;20180;-87
2021/06/04 04:26:13;;;;;;;43.43;38.83;;;14.50;94.90;;;;;;5055568;28;20609;-86
2021/06/04 04:28:43;;;;;;;45.63;40.67;;;14.70;94.90;;;;;;5055513;28;20210;-86
2021/06/04 04:31:11;;;;;;;43.20;38.70;;;14.80;95.00;;;;;;5055565;28;20172;-86
2021/06/04 04:33:38;;;;;;;47.57;39.77;;;14.90;95.00;;;;;;5057428;28;20177;-86
2021/06/04 04:36:06;;;;;;;42.20;37.90;;;14.80;95.00;;;;;;5056733;28;20202;-86
2021/06/04 04:38:32;;;;;;;48.10;38.90;;;14.90;95.00;;;;;;5055425;28;20179;-86
2021/06/04 04:41:01;;;;;;;49.57;38.97;;;14.80;95.00;;;;;;5056642;28;20179;-86
2021/06/04 04:43:30;;;;;;;45.00;39.40;;;14.90;95.00;;;;;;5057024;28;20632;-87
2021/06/04 04:45:56;;;;;;;45.87;41.03;;;14.90;95.10;;;;;;5056382;28;20664;-86
2021/06/04 04:48:22;;;;;;;47.83;39.73;;;15.00;95.20;;;;;;5056788;28;20175;-86
2021/06/04 04:50:48;;;;;;;46.97;42.40;;;15.20;95.20;;;;;;5055298;28;20183;-87
2021/06/04 04:53:14;;;;;;;50.50;43.73;;;15.20;95.20;;;;;;5055198;28;20267;-87
2021/06/04 04:55:40;;;;;;;47.50;41.93;;;15.30;95.30;;;;;;5055134;28;20195;-87
2021/06/04 04:58:07;;;;;;;49.80;43.53;;;15.50;95.30;;;;;;5056581;28;20255;-87
2021/06/04 05:00:34;;;;;;;47.90;42.90;;;15.50;95.30;;;;;;5056325;28;20515;-87
2021/06/04 05:03:00;;;;;;;47.40;42.23;;;15.60;95.20;;;;;;5055120;28;20627;-87
2021/06/04 05:05:28;;;;;;;45.57;40.77;;;15.60;95.20;;;;;;5054804;28;20218;-86
2021/06/04 05:07:53;;;;;;;45.60;40.10;;;15.70;95.20;;;;;;5056041;28;20718;-87
2021/06/04 05:10:20;;;;;;;47.57;40.07;;;15.70;95.20;;;;;;5055139;28;20211;-86
2021/06/04 05:12:46;;;;;;;43.70;39.27;;;15.80;95.20;;;;;;5054864;28;20221;-87
2021/06/04 05:15:17;;;;;;;45.63;37.77;;;15.90;95.20;;;;;;5055901;28;20647;-87
2021/06/04 05:17:44;;;;;;;39.73;35.70;;;15.90;95.10;;;;;;5056028;28;20179;-87
2021/06/04 05:20:12;;;;;;;38.93;34.20;;;16.00;95.10;;;;;;5054699;28;20232;-87
2021/06/04 05:22:38;;;;;;;37.88;33.88;;;16.10;95.00;;;;;;5054569;28;20176;-87
2021/06/04 05:25:08;;;;;;;37.08;31.70;;;16.20;94.80;;;;;;5054471;28;20202;-87
2021/06/04 05:27:33;;;;;;;36.45;32.63;;;16.30;94.70;;;;;;5054544;28;20662;-87
2021/06/04 05:29:59;;;;;;;38.88;31.35;;;16.50;94.80;;;;;;5055137;28;20207;-87
2021/06/04 05:32:25;;;;;;;33.78;30.58;;;16.60;94.70;;;;;;5055724;28;20258;-87
2021/06/04 05:34:51;;;;;;;33.10;29.88;;;16.70;94.40;;;;;;5054302;28;20203;-87
2021/06/04 05:37:17;;;;;;;32.75;29.50;;;16.80;94.20;;;;;;5055613;28;20179;-87
2021/06/04 05:39:43;;;;;;;30.45;27.25;;;16.90;94.20;;;;;;5054311;28;20602;-87
2021/06/04 05:42:09;;;;;;;28.33;25.08;;;17.00;94.00;;;;;;5055518;28;20640;-87
2021/06/04 05:44:36;;;;;;;25.45;23.08;;;17.00;93.50;;;;;;5054269;28;20203;-86
2021/06/04 05:47:07;;;;;;;25.27;22.77;;;16.90;93.10;;;;;;5055416;28;20204;-87
2021/06/04 05:49:33;;;;;;;26.63;24.05;;;17.00;93.20;;;;;;5054280;28;20179;-87
2021/06/04 05:52:00;;;;;;;23.38;21.08;;;17.10;93.30;;;;;;5055619;28;20221;-87
2021/06/04 05:54:27;;;;;;;25.98;21.63;;;17.30;93.10;;;;;;5054051;28;20255;-87
2021/06/04 05:56:54;;;;;;;22.35;19.95;;;17.40;92.30;;;;;;5053945;28;20180;-87
2021/06/04 05:59:19;;;;;;;20.58;18.42;;;17.50;92.30;;;;;;5055271;28;20573;-87
2021/06/04 06:01:46;;;;;;;21.67;17.42;;;17.50;91.60;;;;;;5053991;28;20176;-87
2021/06/04 06:04:13;;;;;;;18.90;16.65;;;17.60;91.40;;;;;;5055208;28;20183;-87
2021/06/04 06:06:39;;;;;;;18.63;16.80;;;17.70;90.90;;;;;;5055068;28;20200;-87
2021/06/04 06:09:06;;;;;;;18.70;16.77;;;17.70;90.60;;;;;;5055089;28;20165;-87
2021/06/04 06:11:33;;;;;;;18.10;16.20;;;17.80;90.00;;;;;;5053795;28;20183;-87
2021/06/04 06:14:00;;;;;;;21.48;16.20;;;17.90;90.20;;;;;;5053802;28;20221;-87
2021/06/04 06:16:29;;;;;;;16.35;14.70;;;17.90;89.50;;;;;;5054903;28;20249;-87
2021/06/04 06:18:56;;;;;;;15.02;13.48;;;17.90;88.60;;;;;;5053640;28;20180;-87
2021/06/04 06:21:22;;;;;;;18.77;14.82;;;18.00;89.10;;;;;;5054918;28;20175;-87
2021/06/04 06:23:48;;;;;;;15.98;14.38;;;18.00;88.20;;;;;;5054743;28;20184;-87
2021/06/04 06:26:19;;;;;;;15.02;13.45;;;18.20;88.40;;;;;;5053301;28;20574;-87
2021/06/04 06:28:45;;;;;;;17.48;12.95;;;18.20;88.00;;;;;;5054718;28;20163;-87
2021/06/04 06:31:15;;;;;;;16.83;14.20;;;18.20;87.30;;;;;;5053500;28;20168;-87
2021/06/04 06:33:41;;;;;;;14.40;12.98;;;18.20;87.20;;;;;;5054862;28;20226;-87
2021/06/04 06:36:11;;;;;;;14.82;13.18;;;18.20;87.40;;;;;;5053308;28;20283;-87
2021/06/04 06:38:38;;;;;;;14.95;13.45;;;18.30;87.40;;;;;;5053331;28;20172;-87
2021/06/04 06:41:08;;;;;;;14.13;12.70;;;18.30;87.60;;;;;;5053552;28;20664;-87
2021/06/04 06:43:37;;;;;;;14.00;12.60;;;18.30;86.80;;;;;;5053221;28;20211;-87
2021/06/04 06:46:04;;;;;;;14.73;12.93;;;18.40;87.30;;;;;;5053007;28;20214;-87
2021/06/04 06:48:30;;;;;;;15.02;12.93;;;18.50;86.90;;;;;;5054371;28;20226;-88
2021/06/04 06:50:56;;;;;;;14.93;13.43;;;18.70;86.90;;;;;;5053614;28;20172;-88
2021/06/04 06:53:24;;;;;;;14.30;12.80;;;18.70;86.60;;;;;;5052974;28;20222;-87
2021/06/04 06:55:52;;;;;;;14.13;12.52;;;18.80;86.80;;;;;;5054076;28;20188;-87
2021/06/04 06:58:18;;;;;;;13.73;12.35;;;18.80;85.60;;;;;;5054698;28;20721;-87
2021/06/04 07:00:47;;;;;;;14.82;10.98;;;18.80;85.20;;;;;;5052819;28;20180;-87
2021/06/04 07:03:18;;;;;;;15.13;12.40;;;18.80;84.50;;;;;;5052833;28;20655;-87
2021/06/04 07:05:44;;;;;;;14.85;12.27;;;18.90;85.10;;;;;;5053831;28;20203;-87
2021/06/04 07:08:11;;;;;;;14.35;12.85;;;19.00;84.40;;;;;;5053912;28;20179;-87
2021/06/04 07:10:38;;;;;;;14.73;11.57;;;19.10;84.10;;;;;;5052718;28;20201;-87
2021/06/04 07:13:08;;;;;;;17.00;12.45;;;19.10;83.60;;;;;;5052656;28;20180;-87
2021/06/04 07:15:34;;;;;;;13.95;12.55;;;19.20;84.10;;;;;;5053062;28;20203;-88
2021/06/04 07:18:00;;;;;;;15.25;12.65;;;19.40;84.80;;;;;;5052632;28;20209;-87
2021/06/04 07:20:29;;;;;;;15.00;12.73;;;19.40;83.70;;;;;;5052427;28;20176;-88
2021/06/04 07:22:57;;;;;;;15.90;12.35;;;19.40;83.40;;;;;;5053739;28;20218;-88
2021/06/04 07:25:26;;;;;;;13.70;12.30;;;19.60;83.90;;;;;;5053644;28;20687;-87
2021/06/04 07:27:52;;;;;;;13.80;12.43;;;19.60;82.80;;;;;;5052740;28;20176;-89
2021/06/04 07:30:25;;;;;;;12.98;11.70;;;19.70;82.40;;;;;;5053654;28;20164;-88
2021/06/04 07:32:51;;;;;;;14.63;13.07;;;19.80;83.40;;;;;;5052346;28;20178;-87
2021/06/04 07:35:20;;;;;;;12.68;11.48;;;19.90;84.20;;;;;;5053675;28;20199;-87
2021/06/04 07:37:46;;;;;;;16.42;12.35;;;20.00;82.30;;;;;;5053450;28;20164;-88
2021/06/04 07:40:16;;;;;;;18.23;13.50;;;20.00;82.30;;;;;;5053463;28;20210;-87
2021/06/04 07:42:42;;;;;;;17.25;13.45;;;20.00;81.30;;;;;;5052263;28;20206;-87
2021/06/04 07:45:09;;;;;;;16.38;13.25;;;20.00;80.40;;;;;;5052232;28;20211;-87
2021/06/04 07:47:36;;;;;;;16.20;14.68;;;20.10;81.60;;;;;;5053279;28;20172;-87
2021/06/04 07:50:04;;;;;;;15.70;14.13;;;20.30;82.60;;;;;;5053551;28;20168;-87
2021/06/04 07:52:30;;;;;;;18.63;14.13;;;20.30;81.30;;;;;;5051803;28;20179;-87
2021/06/04 07:54:58;;;;;;;18.40;15.38;;;20.40;81.20;;;;;;5053117;28;20721;-87
2021/06/04 07:57:25;;;;;;;19.25;14.63;;;20.50;82.10;;;;;;5051930;28;20210;-87
2021/06/04 07:59:51;;;;;;;16.70;15.10;;;20.50;81.00;;;;;;5052276;28;20234;-88
2021/06/04 08:02:17;;;;;;;16.88;14.80;;;20.60;80.50;;;;;;5053198;28;20172;-87
2021/06/04 08:04:43;;;;;;;19.92;16.00;;;20.60;79.90;;;;;;5052199;28;20211;-89
2021/06/04 08:07:09;;;;;;;20.40;16.02;;;20.70;81.30;;;;;;5051907;28;20192;-90
2021/06/04 08:09:35;;;;;;;18.30;15.32;;;20.80;80.70;;;;;;5053125;28;20255;-90
2021/06/04 08:12:04;;;;;;;17.23;15.63;;;20.80;79.00;;;;;;5053142;28;20189;-89
2021/06/04 08:14:30;;;;;;;18.73;16.45;;;20.80;80.80;;;;;;5051759;28;20320;-90
2021/06/04 08:16:58;;;;;;;19.40;16.70;;;20.70;80.90;;;;;;5051855;28;20657;-89
2021/06/04 08:19:24;;;;;;;18.80;16.30;;;20.80;81.50;;;;;;5051781;28;20171;-88
2021/06/04 08:21:53;;;;;;;19.55;17.52;;;21.00;80.20;;;;;;5051721;28;20176;-88
2021/06/04 08:24:24;;;;;;;24.50;16.67;;;21.10;80.40;;;;;;5051695;28;20180;-88
2021/06/04 08:26:51;;;;;;;18.40;15.70;;;21.20;79.60;;;;;;5051736;28;20286;-88
2021/06/04 08:29:16;;;;;;;18.25;15.85;;;21.20;79.40;;;;;;5051777;28;20230;-88
2021/06/04 08:31:42;;;;;;;21.85;15.63;;;21.50;79.80;;;;;;5051680;28;20172;-88
2021/06/04 08:34:09;;;;;;;17.30;15.52;;;21.50;77.90;;;;;;5051608;28;20241;-88
2021/06/04 08:36:38;;;;;;;20.35;16.00;;;21.70;78.60;;;;;;5051573;28;20279;-88
2021/06/04 08:39:12;;;;;;;17.33;15.52;;;21.70;76.10;;;;;;5051836;28;20187;-88
2021/06/04 08:41:43;;;;;;;18.20;14.25;;;21.80;79.00;;;;;;5051690;28;20164;-88
2021/06/04 08:44:31;;;;;;;17.30;15.25;;;21.90;78.90;;;;;;5051666;28;20161;-89
2021/06/04 08:47:20;;;;;;;20.27;16.33;;;22.00;76.40;;;;;;5051555;28;20196;-90
2021/06/04 08:49:58;;;;;;;23.15;15.68;;;22.20;78.20;;;;;;5051476;28;20200;-88
2021/06/04 08:52:41;;;;;;;17.85;15.38;;;22.20;77.00;;;;;;5052949;28;20530;-87
2021/06/04 08:55:24;;;;;;;17.48;15.68;;;22.40;78.30;;;;;;5052617;28;20269;-87
2021/06/04 08:58:10;;;;;;;23.52;15.45;;;22.60;76.30;;;;;;5052633;28;20803;-87
2021/06/04 09:00:40;;;;;;;18.80;15.98;;;22.60;76.40;;;;;;5052620;28;20158;-87
2021/06/04 09:03:23;;;;;;;17.23;15.35;;;22.60;75.90;;;;;;5051370;28;20163;-88
2021/06/04 09:05:53;;;;;;;18.67;15.35;;;22.70;76.60;;;;;;5145085;22;20239;-89
2021/06/04 09:08:32;;;;;;;18.85;15.05;;;22.80;76.30;;;;;;5055057;28;20200;-89
2021/06/04 09:11:02;;;;;;;17.35;15.15;;;22.90;76.20;;;;;;5054991;28;20196;-89
2021/06/04 09:13:31;;;;;;;21.20;16.00;;;23.00;76.20;;;;;;5055826;28;20674;-88
2021/06/04 09:16:28;;;;;;;19.00;15.60;;;23.20;75.90;;;;;;5054808;28;20200;-89
2021/06/04 09:19:22;;;;;;;13.50;11.27;;;23.10;72.90;;;;;;5054195;28;20278;-88
2021/06/04 09:21:50;;;;;;;11.35;9.73;;;23.20;73.60;;;;;;5056348;28;20184;-89
2021/06/04 09:24:28;;;;;;;14.23;10.75;;;23.20;71.30;;;;;;5055378;28;20214;-88
2021/06/04 09:26:54;;;;;;;18.23;15.23;;;23.30;68.80;;;;;;5055921;28;20211;-88
2021/06/04 09:29:27;;;;;;;23.27;13.40;;;23.40;71.60;;;;;;5055901;28;20172;-88
2021/06/04 09:31:57;;;;;;;19.90;15.25;;;23.30;72.30;;;;;;5054596;28;20164;-88
2021/06/04 09:34:26;;;;;;;17.63;15.10;;;23.60;72.00;;;;;;5055757;28;20175;-88
2021/06/04 09:36:55;;;;;;;14.95;13.35;;;23.50;69.30;;;;;;5054823;28;20195;-88
2021/06/04 09:39:50;;;;;;;9.98;7.75;;;23.50;70.30;;;;;;5054480;28;20237;-88
2021/06/04 09:42:26;;;;;;;13.00;8.13;;;23.70;67.00;;;;;;5055668;28;20172;-89
2021/06/04 09:44:55;;;;;;;9.63;6.93;;;24.00;64.40;;;;;;5055472;28;20156;-88
2021/06/04 09:47:45;;;;;;;13.50;7.50;;;24.10;65.80;;;;;;5054107;28;20287;-88
2021/06/04 09:50:11;;;;;;;13.70;9.95;;;24.30;66.50;;;;;;5054338;28;20176;-89
2021/06/04 09:52:39;;;;;;;10.82;9.73;;;24.10;66.30;;;;;;5055366;28;20682;-88
2021/06/04 09:55:17;;;;;;;12.20;9.27;;;24.20;67.50;;;;;;5055314;28;20241;-88
2021/06/04 09:58:01;;;;;;;8.48;7.63;;;24.20;64.50;;;;;;5055602;28;20156;-88
2021/06/04 10:00:29;;;;;;;11.40;10.10;;;24.40;61.30;;;;;;5055236;28;20221;-88
2021/06/04 10:03:24;;;;;;;10.13;9.02;;;24.30;63.80;;;;;;5055270;28;20168;-88
2021/06/04 10:06:22;;;;;;;11.88;9.38;;;24.10;63.80;;;;;;5036704;28;20223;-88
2021/06/04 10:09:06;;;;;;;17.67;11.05;;;24.70;66.10;;;;;;5010848;28;20180;-88
2021/06/04 10:11:41;;;;;;;12.82;10.18;;;24.90;65.80;;;;;;5053872;28;20199;-88
2021/06/04 10:14:49;;;;;;;10.65;9.32;;;25.40;65.70;;;;;;5054074;28;20171;-88
2021/06/04 10:19:51;;;;;;;10.70;8.63;;;25.20;64.60;;;;;;5055556;28;20161;-88
2021/06/04 10:22:28;;;;;;;10.57;9.48;;;25.60;65.40;;;;;;5053624;28;20179;-88
2021/06/04 10:25:13;;;;;;;12.55;9.20;;;25.30;61.30;;;;;;5053791;28;20297;-88
2021/06/04 10:27:52;;;;;;;59.13;27.27;;;25.10;62.90;;;;;;5053527;28;20187;-89
2021/06/04 10:30:23;;;;;;;34.72;17.27;;;25.50;63.70;;;;;;5053501;28;20164;-88
2021/06/04 10:32:55;;;;;;;21.10;10.77;;;25.50;63.20;;;;;;5053919;28;20171;-89
2021/06/04 10:35:24;;;;;;;31.10;16.17;;;25.60;62.90;;;;;;5054880;28;20200;-89
2021/06/04 10:38:00;;;;;;;11.10;9.98;;;25.90;61.70;;;;;;5053284;28;20176;-89
2021/06/04 10:40:39;;;;;;;12.18;10.35;;;25.70;61.90;;;;;;5053339;28;20160;-88
2021/06/04 10:43:07;;;;;;;14.70;10.15;;;25.70;62.10;;;;;;5054649;28;20267;-88
2021/06/04 10:45:37;;;;;;;19.38;12.63;;;26.00;63.60;;;;;;5054177;28;20204;-88
2021/06/04 10:48:49;;;;;;;15.55;10.73;;;25.60;59.50;;;;;;5053122;28;20168;-88
2021/06/04 10:51:27;;;;;;;14.05;8.98;;;25.50;62.30;;;;;;5052990;28;20164;-88
2021/06/04 10:53:59;;;;;;;14.45;9.23;;;26.00;61.70;;;;;;5054346;28;20164;-88
2021/06/04 10:56:38;;;;;;;9.30;7.65;;;26.20;59.20;;;;;;5053334;28;20192;-88
2021/06/04 10:59:34;;;;;;;9.13;7.05;;;26.20;56.40;;;;;;5054194;28;20620;-88
2021/06/04 11:02:15;;;;;;;10.95;7.70;;;26.70;58.40;;;;;;5052816;28;20183;-87
2021/06/04 11:04:47;;;;;;;15.43;7.05;;;26.60;58.10;;;;;;5053542;28;20521;-88
2021/06/04 11:07:21;;;;;;;7.88;7.03;;;26.30;58.90;;;;;;5054367;28;20325;-88
2021/06/04 11:09:58;;;;;;;9.65;6.40;;;26.20;58.60;;;;;;5052697;28;20175;-88
2021/06/04 11:12:50;;;;;;;9.73;6.20;;;26.50;59.50;;;;;;5052676;28;20213;-88
2021/06/04 11:15:54;;;;;;;7.60;5.55;;;26.50;58.50;;;;;;5052794;28;20555;-88
2021/06/04 11:18:44;;;;;;;10.95;5.45;;;26.60;56.70;;;;;;5052831;28;20674;-88
2021/06/04 11:21:25;;;;;;;10.98;6.43;;;26.50;57.90;;;;;;5053826;28;20268;-90
2021/06/04 11:23:58;;;;;;;8.60;5.25;;;26.80;59.00;;;;;;5053784;28;20164;-90
2021/06/04 11:26:31;;;;;;;10.90;5.53;;;27.30;56.90;;;;;;5053534;28;20200;-90
2021/06/04 11:29:04;;;;;;;6.30;5.70;;;27.30;55.80;;;;;;5051760;28;20609;-90
2021/06/04 11:31:33;;;;;;;8.00;6.70;;;27.70;56.70;;;;;;5052704;28;20164;-90
2021/06/04 11:34:05;;;;;;;8.40;7.22;;;27.40;54.60;;;;;;5053793;28;20171;-90
2021/06/04 11:36:31;;;;;;;9.00;6.78;;;27.50;54.10;;;;;;5053744;28;20192;-90
2021/06/04 11:39:07;;;;;;;13.80;6.45;;;27.30;57.80;;;;;;5053067;28;20172;-90
2021/06/04 11:41:32;;;;;;;6.40;5.78;;;27.50;59.00;;;;;;5052752;28;20202;-89
2021/06/04 11:44:21;;;;;;;10.35;5.72;;;27.90;57.50;;;;;;5053432;28;20542;-90
2021/06/04 11:47:13;;;;;;;9.55;5.70;;;27.90;56.70;;;;;;5052214;28;20274;-90
2021/06/04 11:49:54;;;;;;;7.20;6.18;;;27.90;54.50;;;;;;5052118;28;20192;-90
2021/06/04 11:52:30;;;;;;;7.40;5.20;;;27.40;52.80;;;;;;5053205;28;20175;-90
2021/06/04 11:55:25;;;;;;;6.38;5.13;;;27.60;58.50;;;;;;5053238;28;20165;-90
2021/06/04 11:57:59;;;;;;;5.68;5.18;;;27.70;56.00;;;;;;5052526;28;20325;-90
2021/06/04 12:00:25;;;;;;;9.13;5.50;;;27.90;55.00;;;;;;5053497;28;20167;-90
2021/06/04 12:03:09;;;;;;;7.00;5.47;;;27.90;49.70;;;;;;5053223;28;20682;-90
2021/06/04 12:05:43;;;;;;;6.68;6.00;;;28.20;53.70;;;;;;5051809;28;20243;-90
2021/06/04 12:08:24;;;;;;;5.75;5.18;;;27.90;51.20;;;;;;5053175;28;20237;-91
2021/06/04 12:10:49;;;;;;;7.25;4.97;;;27.70;55.20;;;;;;5053257;28;20179;-90
2021/06/04 12:13:34;;;;;;;6.72;5.18;;;28.10;54.10;;;;;;5051814;28;20176;-90
2021/06/04 12:16:31;;;;;;;7.15;4.97;;;28.20;53.10;;;;;;5051850;28;20578;-90
2021/06/04 12:19:22;;;;;;;7.63;4.88;;;28.70;52.00;;;;;;5051921;28;20180;-90
2021/06/04 12:21:48;;;;;;;5.00;4.45;;;29.10;51.10;;;;;;5051766;28;20179;-90
2021/06/04 12:24:19;;;;;;;5.90;3.90;;;29.20;51.40;;;;;;5053057;28;20217;-89
2021/06/04 12:26:57;;;;;;;6.40;5.15;;;29.30;50.70;;;;;;5052876;28;20620;-88
2021/06/04 12:29:23;;;;;;;6.05;4.72;;;29.20;49.80;;;;;;5051750;28;20509;-88
2021/06/04 12:31:57;;;;;;;8.98;6.53;;;28.50;52.40;;;;;;5052943;28;20206;-89
2021/06/04 12:34:34;;;;;;;6.85;4.97;;;27.90;51.50;;;;;;5051767;28;20184;-89
2021/06/04 12:37:09;;;;;;;8.68;5.05;;;27.90;53.40;;;;;;5051805;28;20278;-89
2021/06/04 12:39:56;;;;;;;6.68;4.22;;;28.40;55.00;;;;;;5054987;28;20223;-89
2021/06/04 12:42:24;;;;;;;6.10;5.47;;;28.50;49.40;;;;;;5057082;28;20174;-89
2021/06/04 12:45:08;;;;;;;5.88;5.13;;;28.70;49.30;;;;;;5056919;28;20552;-90
2021/06/04 12:47:47;;;;;;;7.97;4.90;;;28.90;50.00;;;;;;5055321;28;20207;-89
2021/06/04 12:50:24;;;;;;;6.88;5.68;;;29.00;49.10;;;;;;5056634;28;20164;-89
2021/06/04 12:52:51;;;;;;;5.15;4.72;;;28.60;47.00;;;;;;5055913;28;20525;-89
2021/06/04 12:55:22;;;;;;;9.45;4.78;;;27.90;50.00;;;;;;5055185;28;20200;-88
2021/06/04 12:57:49;;;;;;;7.57;4.43;;;27.70;48.90;;;;;;5055307;28;20251;-88
2021/06/04 13:00:30;;;;;;;9.27;4.53;;;27.50;49.70;;;;;;5056384;28;20168;-89